Time;durP1;ratioP1;P1;durP2;ratioP2;P2;SDS_P1;SDS_P2;PMS_P1;PMS_P2;Temp;Humidity;BMP_temperature;BMP_pressure;BME280_temperature;BME280_humidity;BME280_pressure;Samples;Min_cycle;Max_cycle;Signal;HPM_P1;HPM_P2
2024/01/09 00:00:34;;;;;;;3.43;2.03;;;;;;;-5.32;83.17;103103.34;5025999;28;20022;-62
2024/01/09 00:02:59;;;;;;;5.50;2.87;;;;;;;-5.29;83.25;103097.81;5026884;28;20036;-62
2024/01/09 00:05:24;;;;;;;3.50;2.53;;;;;;;-5.30;83.15;103101.94;5026301;28;20045;-62
2024/01/09 00:07:49;;;;;;;3.10;2.37;;;;;;;-5.31;83.42;103096.69;5026739;28;20048;-62
2024/01/09 00:10:15;;;;;;;3.40;2.37;;;;;;;-5.26;83.38;103092.22;5024749;28;20036;-62
2024/01/09 00:12:40;;;;;;;3.10;2.30;;;;;;;-5.27;84.62;103093.84;5026814;28;20444;-62
2024/01/09 00:15:07;;;;;;;3.87;2.57;;;;;;;-5.32;84.53;103090.72;5026434;28;20025;-62
2024/01/09 00:17:32;;;;;;;4.80;2.80;;;;;;;-5.31;84.02;103090.00;5026331;28;20687;-62
2024/01/09 00:19:58;;;;;;;5.23;2.40;;;;;;;-5.32;84.19;103083.13;5025788;28;20214;-62
2024/01/09 00:22:23;;;;;;;4.73;2.27;;;;;;;-5.31;85.37;103084.06;5026901;28;20028;-62
2024/01/09 00:24:48;;;;;;;3.80;2.60;;;;;;;-5.31;85.46;103089.09;5028519;28;20036;-62
2024/01/09 00:27:14;;;;;;;3.23;2.17;;;;;;;-5.31;85.47;103092.53;5030445;28;20456;-62
2024/01/09 00:29:39;;;;;;;6.77;2.80;;;;;;;-5.32;85.80;103083.13;5029802;28;20022;-62
2024/01/09 00:32:04;;;;;;;4.13;2.27;;;;;;;-5.35;86.19;103090.31;5030041;28;20040;-62
2024/01/09 00:34:30;;;;;;;3.13;2.23;;;;;;;-5.37;86.09;103084.13;5029973;28;20040;-62
2024/01/09 00:36:55;;;;;;;3.33;2.33;;;;;;;-5.39;86.55;103090.59;5030403;28;20101;-62
2024/01/09 00:39:20;;;;;;;3.20;2.07;;;;;;;-5.40;85.46;103088.81;5016657;28;20040;-62
2024/01/09 00:41:45;;;;;;;4.03;2.67;;;;;;;-5.43;86.04;103088.38;5029430;28;20044;-63
2024/01/09 00:44:11;;;;;;;4.23;2.83;;;;;;;-5.41;86.84;103086.97;5030009;28;20499;-62
2024/01/09 00:46:36;;;;;;;4.73;2.80;;;;;;;-5.40;86.75;103090.41;5029927;28;20041;-62
2024/01/09 00:49:01;;;;;;;3.60;2.90;;;;;;;-5.42;86.93;103090.22;5029534;28;20516;-62
2024/01/09 00:51:26;;;;;;;4.10;2.27;;;;;;;-5.44;86.78;103091.63;5029694;28;20050;-62
2024/01/09 00:53:54;;;;;;;4.70;2.27;;;;;;;-5.45;87.27;103092.34;5029753;28;20405;-62
2024/01/09 00:56:21;;;;;;;4.13;2.47;;;;;;;-5.46;87.02;103093.03;5029787;28;20396;-62
2024/01/09 00:58:46;;;;;;;4.87;2.23;;;;;;;-5.44;85.45;103086.56;5029702;28;20033;-62
2024/01/09 01:01:11;;;;;;;4.27;2.47;;;;;;;-5.46;86.20;103085.44;5029508;28;20112;-62
2024/01/09 01:03:36;;;;;;;5.10;2.87;;;;;;;-5.46;86.16;103093.03;5029707;28;20033;-62
2024/01/09 01:06:02;;;;;;;3.77;2.43;;;;;;;-5.50;85.69;103085.72;5030119;28;20255;-62
2024/01/09 01:08:28;;;;;;;3.50;2.70;;;;;;;-5.51;85.97;103078.88;5027737;28;20041;-62
2024/01/09 01:10:53;;;;;;;4.40;3.10;;;;;;;-5.52;86.39;103077.06;5029298;28;20030;-62
2024/01/09 01:13:18;;;;;;;2.53;2.33;;;;;;;-5.55;86.31;103075.94;5029117;28;20056;-62
2024/01/09 01:15:43;;;;;;;3.83;2.60;;;;;;;-5.55;86.64;103080.06;5027384;28;20057;-62
2024/01/09 01:18:09;;;;;;;5.57;2.63;;;;;;;-5.52;87.53;103083.00;5028701;28;20389;-62
2024/01/09 01:20:34;;;;;;;4.17;2.60;;;;;;;-5.55;86.73;103088.56;5029197;28;20029;-62
2024/01/09 01:22:59;;;;;;;3.43;2.57;;;;;;;-5.58;86.58;103088.16;5029213;28;20457;-62
2024/01/09 01:25:25;;;;;;;3.57;2.03;;;;;;;-5.56;87.00;103091.78;5029109;28;20025;-62
2024/01/09 01:27:50;;;;;;;4.47;2.30;;;;;;;-5.55;86.73;103087.66;5028616;28;20037;-62
2024/01/09 01:30:15;;;;;;;3.17;2.33;;;;;;;-5.57;86.94;103081.47;5027888;28;20033;-62
2024/01/09 01:32:40;;;;;;;3.30;2.30;;;;;;;-5.60;87.37;103092.09;5028344;28;20057;-62
2024/01/09 01:35:06;;;;;;;2.63;2.03;;;;;;;-5.64;87.83;103077.22;5028943;28;20038;-62
2024/01/09 01:37:31;;;;;;;3.47;2.10;;;;;;;-5.66;87.17;103093.78;5029002;28;20064;-62
2024/01/09 01:39:57;;;;;;;3.37;2.63;;;;;;;-5.69;86.91;103094.31;5027458;28;20397;-62
2024/01/09 01:42:22;;;;;;;4.17;2.37;;;;;;;-5.64;87.98;103097.44;5028418;28;20385;-62
2024/01/09 01:44:47;;;;;;;3.63;2.60;;;;;;;-5.67;88.57;103092.00;5029134;28;20040;-62
2024/01/09 01:47:14;;;;;;;3.40;2.20;;;;;;;-5.76;87.51;103094.19;5028793;28;20465;-62
2024/01/09 01:49:40;;;;;;;3.00;2.27;;;;;;;-5.74;88.30;103086.81;5028326;28;20052;-62
2024/01/09 01:52:06;;;;;;;3.80;2.53;;;;;;;-5.74;88.32;103085.22;5028474;28;20071;-62
2024/01/09 01:54:34;;;;;;;3.47;2.33;;;;;;;-5.76;88.76;103080.63;5027875;28;20036;-62
2024/01/09 01:57:00;;;;;;;5.37;2.43;;;;;;;-5.74;88.92;103087.72;5028062;28;20105;-62
2024/01/09 01:59:26;;;;;;;3.50;2.50;;;;;;;-5.75;89.05;103088.41;5028591;28;20858;-62
2024/01/09 02:01:51;;;;;;;4.60;2.33;;;;;;;-5.74;89.46;103085.22;5027988;28;20079;-62
2024/01/09 02:04:19;;;;;;;3.30;2.30;;;;;;;-5.81;88.92;103088.50;5028317;28;20021;-62
2024/01/09 02:06:46;;;;;;;4.27;2.50;;;;;;;-5.83;88.93;103083.97;5027858;28;20029;-62
2024/01/09 02:09:11;;;;;;;3.10;2.07;;;;;;;-5.80;88.69;103082.75;5028257;28;20421;-62
2024/01/09 02:11:36;;;;;;;4.00;2.60;;;;;;;-5.82;88.75;103081.63;5027740;28;20025;-62
2024/01/09 02:14:01;;;;;;;3.57;2.50;;;;;;;-5.83;89.25;103079.78;5027933;28;20036;-62
2024/01/09 02:16:27;;;;;;;5.30;2.60;;;;;;;-5.79;89.55;103086.19;5027370;28;20197;-62
2024/01/09 02:18:52;;;;;;;4.53;2.90;;;;;;;-5.86;89.58;103084.44;5027810;28;20021;-62
2024/01/09 02:21:17;;;;;;;4.33;2.53;;;;;;;-5.86;89.49;103081.03;5027478;28;20139;-62
2024/01/09 02:23:44;;;;;;;3.97;2.67;;;;;;;-5.87;89.28;103080.13;5027912;28;20033;-62
2024/01/09 02:26:11;;;;;;;3.73;2.17;;;;;;;-5.94;89.53;103080.00;5027211;28;20021;-62
2024/01/09 02:28:46;;;;;;;3.87;2.30;;;;;;;-5.95;89.91;103075.63;5027773;28;20021;-61
2024/01/09 02:31:12;;;;;;;3.10;2.03;;;;;;;-5.95;90.21;103068.03;5027789;28;20056;-61
2024/01/09 02:33:39;;;;;;;4.10;2.23;;;;;;;-5.94;90.69;103070.81;5027729;28;20386;-62
2024/01/09 02:36:04;;;;;;;3.57;2.47;;;;;;;-5.95;90.43;103079.06;5027642;28;20028;-62
2024/01/09 02:38:30;;;;;;;3.23;2.20;;;;;;;-5.97;90.59;103070.38;5028635;28;20025;-62
2024/01/09 02:40:55;;;;;;;4.53;2.33;;;;;;;-5.98;91.05;103068.56;5027923;28;20438;-62
2024/01/09 02:43:20;;;;;;;3.13;2.27;;;;;;;-5.96;91.11;103072.22;5027316;28;20172;-62
2024/01/09 02:45:45;;;;;;;2.90;2.07;;;;;;;-5.95;91.36;103058.88;5027016;28;20035;-62
2024/01/09 02:48:11;;;;;;;3.80;2.20;;;;;;;-5.96;91.02;103069.69;5026394;28;20214;-62
2024/01/09 02:50:36;;;;;;;4.00;2.80;;;;;;;-6.00;91.78;103064.91;5027245;28;20052;-62
2024/01/09 02:53:01;;;;;;;7.70;2.47;;;;;;;-6.03;91.28;103065.41;5026721;28;20477;-62
2024/01/09 02:55:27;;;;;;;4.40;2.13;;;;;;;-6.03;91.48;103069.56;5027361;28;20131;-62
2024/01/09 02:57:52;;;;;;;2.47;1.83;;;;;;;-6.01;91.93;103063.09;5027722;28;20025;-62
2024/01/09 03:00:19;;;;;;;2.90;2.13;;;;;;;-6.07;91.47;103065.75;5026884;28;20061;-62
2024/01/09 03:02:44;;;;;;;3.27;2.40;;;;;;;-6.06;92.00;103065.03;5027256;28;20416;-62
2024/01/09 03:05:09;;;;;;;4.53;2.80;;;;;;;-6.04;92.20;103058.53;5027042;28;20037;-62
2024/01/09 03:07:35;;;;;;;4.23;2.40;;;;;;;-6.06;92.20;103054.91;5026839;28;20044;-64
2024/01/09 03:10:01;;;;;;;2.73;2.40;;;;;;;-6.08;92.47;103051.28;5026863;28;20029;-62
2024/01/09 03:12:26;;;;;;;3.37;2.57;;;;;;;-6.10;93.14;103045.13;5027257;28;20032;-62
2024/01/09 03:14:51;;;;;;;3.20;2.47;;;;;;;-6.08;93.39;103051.28;5026759;28;20044;-61
2024/01/09 03:17:18;;;;;;;4.43;2.23;;;;;;;-6.11;92.63;103048.34;5027175;28;20121;-62
2024/01/09 03:19:43;;;;;;;4.20;2.23;;;;;;;-6.10;92.98;103047.66;5026497;28;20663;-62
2024/01/09 03:22:09;;;;;;;3.90;2.13;;;;;;;-6.10;92.93;103051.78;5027330;28;20028;-62
2024/01/09 03:24:34;;;;;;;3.80;2.30;;;;;;;-6.12;92.63;103049.06;5026694;28;20057;-62
2024/01/09 03:27:00;;;;;;;2.77;2.23;;;;;;;-6.11;93.54;103055.00;5026752;28;20033;-61
2024/01/09 03:29:25;;;;;;;3.10;2.03;;;;;;;-6.13;93.53;103052.28;5026649;28;20029;-62
2024/01/09 03:31:50;;;;;;;4.90;2.27;;;;;;;-6.11;93.61;103053.38;5027112;28;20778;-62
2024/01/09 03:34:15;;;;;;;3.40;2.47;;;;;;;-6.15;93.12;103058.72;5026457;28;20885;-62
2024/01/09 03:36:44;;;;;;;2.67;2.27;;;;;;;-6.15;94.01;103053.66;5026831;28;20033;-60
2024/01/09 03:39:10;;;;;;;4.10;2.70;;;;;;;-6.19;94.13;103053.97;5026382;28;20039;-62
2024/01/09 03:41:36;;;;;;;4.10;2.50;;;;;;;-6.20;94.84;103049.63;5026022;28;20665;-61
2024/01/09 03:44:01;;;;;;;3.27;2.43;;;;;;;-6.23;94.44;103054.25;5026593;28;20104;-61
2024/01/09 03:46:26;;;;;;;3.20;2.20;;;;;;;-6.26;94.94;103049.72;5026788;28;20051;-62
2024/01/09 03:48:51;;;;;;;3.23;2.33;;;;;;;-6.25;95.55;103048.09;5026258;28;20106;-62
2024/01/09 03:51:17;;;;;;;4.53;2.13;;;;;;;-6.24;95.63;103049.94;5026049;28;20017;-62
2024/01/09 03:53:42;;;;;;;3.00;2.13;;;;;;;-6.22;96.50;103051.94;5026594;28;20481;-62
2024/01/09 03:56:07;;;;;;;4.27;2.50;;;;;;;-6.27;96.39;103042.84;5027295;28;20029;-62
2024/01/09 03:58:32;;;;;;;3.07;2.27;;;;;;;-6.28;96.32;103044.44;5027276;28;20539;-61
2024/01/09 04:00:58;;;;;;;3.27;2.43;;;;;;;-6.26;96.94;103047.19;5029978;28;20444;-62
2024/01/09 04:03:23;;;;;;;3.40;2.63;;;;;;;-6.27;97.21;103051.31;5030718;28;20040;-62
2024/01/09 04:05:48;;;;;;;2.60;2.00;;;;;;;-6.30;96.73;103055.97;5030651;28;20033;-62
2024/01/09 04:08:14;;;;;;;4.10;2.73;;;;;;;-6.30;96.56;103052.53;5030724;28;20028;-62
2024/01/09 04:10:40;;;;;;;3.40;2.50;;;;;;;-6.31;97.13;103049.06;5030148;28;20025;-62
2024/01/09 04:13:05;;;;;;;2.80;2.10;;;;;;;-6.33;96.92;103042.91;5030843;28;20033;-61
2024/01/09 04:15:32;;;;;;;5.60;2.13;;;;;;;-6.31;96.96;103048.16;5029844;28;20527;-62
2024/01/09 04:17:57;;;;;;;3.77;2.60;;;;;;;-6.31;96.47;103036.47;5030733;28;20064;-61
2024/01/09 04:20:22;;;;;;;3.07;2.30;;;;;;;-6.31;96.00;103041.50;5029410;28;20060;-62
2024/01/09 04:22:48;;;;;;;5.03;2.87;;;;;;;-6.42;96.56;103047.63;5030443;28;20036;-62
2024/01/09 04:25:14;;;;;;;2.70;2.17;;;;;;;-6.40;97.02;103045.28;5030319;28;20021;-61
2024/01/09 04:27:39;;;;;;;3.80;2.50;;;;;;;-6.43;96.69;103044.88;5030115;28;20551;-62
2024/01/09 04:30:06;;;;;;;4.03;2.70;;;;;;;-6.40;96.75;103041.16;5030411;28;20017;-62
2024/01/09 04:32:31;;;;;;;3.97;2.73;;;;;;;-6.37;97.13;103050.78;5030139;28;20037;-62
2024/01/09 04:34:57;;;;;;;3.43;2.37;;;;;;;-6.41;96.83;103044.41;5029811;28;20029;-62
2024/01/09 04:37:23;;;;;;;2.93;2.20;;;;;;;-6.38;96.92;103046.41;5029767;28;20061;-62
2024/01/09 04:39:48;;;;;;;3.37;2.30;;;;;;;-6.39;97.11;103047.13;5029557;28;20025;-62
2024/01/09 04:42:13;;;;;;;4.50;2.63;;;;;;;-6.39;97.92;103047.13;5029822;28;20036;-62
2024/01/09 04:44:38;;;;;;;5.47;2.33;;;;;;;-6.43;98.04;103035.72;5029356;28;20060;-62
2024/01/09 04:47:04;;;;;;;5.83;2.83;;;;;;;-6.41;97.99;103049.44;5029602;28;20030;-61
2024/01/09 04:49:29;;;;;;;3.97;2.80;;;;;;;-6.44;97.90;103055.69;5028669;28;20049;-62
2024/01/09 04:51:54;;;;;;;3.90;2.67;;;;;;;-6.44;97.42;103045.59;5029809;28;20033;-62
2024/01/09 04:54:19;;;;;;;4.67;2.63;;;;;;;-6.42;97.09;103046.72;5029619;28;20044;-62
2024/01/09 04:56:45;;;;;;;5.00;2.67;;;;;;;-6.45;97.14;103041.22;5029717;28;20477;-62
2024/01/09 04:59:10;;;;;;;3.90;2.90;;;;;;;-6.45;97.28;103044.69;5029397;28;20037;-62
2024/01/09 05:01:36;;;;;;;3.53;2.73;;;;;;;-6.47;97.23;103042.63;5029266;28;20025;-62
2024/01/09 05:04:01;;;;;;;4.40;2.47;;;;;;;-6.53;97.39;103038.56;5029292;28;20048;-62
2024/01/09 05:06:26;;;;;;;4.10;3.20;;;;;;;-6.52;97.60;103044.53;5029711;28;20039;-62
2024/01/09 05:08:52;;;;;;;4.27;2.47;;;;;;;-6.52;96.96;103035.38;5028877;28;20026;-62
2024/01/09 05:11:17;;;;;;;3.77;2.53;;;;;;;-6.53;97.44;103043.63;5029129;28;20053;-62
2024/01/09 05:13:43;;;;;;;3.63;2.50;;;;;;;-6.52;97.51;103044.53;5029501;28;20036;-62
2024/01/09 05:16:08;;;;;;;5.17;2.40;;;;;;;-6.54;97.71;103045.94;5029782;28;20029;-62
2024/01/09 05:18:33;;;;;;;3.03;2.70;;;;;;;-6.53;97.59;103051.19;5029069;28;20043;-61
2024/01/09 05:20:58;;;;;;;3.20;2.57;;;;;;;-6.54;98.19;103040.91;5029595;28;20064;-62
2024/01/09 05:23:24;;;;;;;4.43;2.80;;;;;;;-6.54;98.42;103041.81;5029102;28;20029;-62
2024/01/09 05:25:49;;;;;;;4.00;2.70;;;;;;;-6.60;98.22;103046.00;5029367;28;20036;-62
2024/01/09 05:28:15;;;;;;;4.90;2.43;;;;;;;-6.56;98.09;103042.28;5028945;28;20147;-62
2024/01/09 05:30:41;;;;;;;3.83;2.73;;;;;;;-6.59;98.06;103047.84;5028809;28;20076;-62
2024/01/09 05:33:06;;;;;;;3.17;2.43;;;;;;;-6.61;97.64;103040.75;5028884;28;20068;-62
2024/01/09 05:35:32;;;;;;;4.03;2.90;;;;;;;-6.61;97.88;103036.63;5029518;28;20057;-62
2024/01/09 05:37:57;;;;;;;4.53;2.67;;;;;;;-6.62;98.28;103044.91;5024299;28;20033;-62
2024/01/09 05:40:24;;;;;;;4.63;3.17;;;;;;;-6.61;98.76;103040.75;5015124;28;20060;-62
2024/01/09 05:42:49;;;;;;;4.13;2.57;;;;;;;-6.65;98.90;103042.88;5028806;28;20105;-62
2024/01/09 05:45:15;;;;;;;4.27;2.53;;;;;;;-6.63;98.20;103045.59;5028617;28;20116;-62
2024/01/09 05:47:40;;;;;;;3.57;2.67;;;;;;;-6.61;98.74;103046.72;5028468;28;20029;-61
2024/01/09 05:50:06;;;;;;;4.00;2.80;;;;;;;-6.59;98.43;103037.75;5027593;28;20060;-61
2024/01/09 05:52:37;;;;;;;3.97;2.43;;;;;;;-6.61;97.99;103039.16;5029153;28;20474;-62
2024/01/09 05:55:03;;;;;;;4.85;2.72;;;;;;;-6.60;98.39;103038.44;5028033;28;20032;-62
2024/01/09 05:57:28;;;;;;;3.57;2.63;;;;;;;-6.63;98.05;103045.59;5029140;28;20049;-62
2024/01/09 05:59:54;;;;;;;5.30;2.90;;;;;;;-6.67;98.16;103046.78;5028732;28;20482;-62
2024/01/09 06:02:21;;;;;;;4.37;2.90;;;;;;;-6.65;98.72;103041.94;5027513;28;20025;-62
2024/01/09 06:04:46;;;;;;;5.57;3.07;;;;;;;-6.68;98.91;103046.56;5028545;28;20060;-62
2024/01/09 06:07:12;;;;;;;4.17;2.87;;;;;;;-6.67;98.84;103044.25;5025359;28;20053;-62
2024/01/09 06:09:37;;;;;;;4.53;3.23;;;;;;;-6.70;98.66;103047.97;5028218;28;20026;-62
2024/01/09 06:12:02;;;;;;;6.00;2.80;;;;;;;-6.72;98.37;103039.28;5028153;28;20025;-62
2024/01/09 06:14:28;;;;;;;4.67;3.17;;;;;;;-6.70;99.04;103040.41;5027099;28;20377;-62
2024/01/09 06:16:53;;;;;;;5.40;2.80;;;;;;;-6.73;99.35;103038.38;5027785;28;20516;-62
2024/01/09 06:19:18;;;;;;;4.13;3.03;;;;;;;-6.72;98.86;103049.38;5028076;28;20035;-62
2024/01/09 06:21:43;;;;;;;4.13;2.90;;;;;;;-6.70;99.82;103050.50;5026408;28;20030;-61
2024/01/09 06:24:09;;;;;;;4.83;2.70;;;;;;;-6.72;99.28;103045.25;5027885;28;20477;-62
2024/01/09 06:26:34;;;;;;;5.33;3.70;;;;;;;-6.77;99.48;103051.28;5023959;28;20033;-62
2024/01/09 06:28:59;;;;;;;4.70;2.97;;;;;;;-6.76;99.40;103051.47;5027947;28;20033;-62
2024/01/09 06:31:24;;;;;;;5.93;3.43;;;;;;;-6.76;100.00;103054.00;5027986;28;20032;-62
2024/01/09 06:33:50;;;;;;;5.33;3.03;;;;;;;-6.74;99.90;103056.72;5027974;28;20033;-62
2024/01/09 06:36:15;;;;;;;4.10;3.07;;;;;;;-6.73;100.00;103056.06;5027380;28;20095;-61
2024/01/09 06:38:40;;;;;;;4.57;3.20;;;;;;;-6.75;100.00;103059.97;5027608;28;20108;-62
2024/01/09 06:41:05;;;;;;;5.27;2.87;;;;;;;-6.77;100.00;103067.31;5027415;28;20087;-61
2024/01/09 06:43:31;;;;;;;5.10;2.90;;;;;;;-6.73;100.00;103067.75;5027141;28;20029;-62
2024/01/09 06:45:56;;;;;;;4.87;3.20;;;;;;;-6.75;100.00;103072.56;5027094;28;20036;-62
2024/01/09 06:48:21;;;;;;;6.07;3.30;;;;;;;-6.75;100.00;103076.03;5028689;28;20351;-61
2024/01/09 06:50:47;;;;;;;5.30;2.93;;;;;;;-6.77;100.00;103069.84;5023328;28;20470;-62
2024/01/09 06:53:13;;;;;;;4.37;3.40;;;;;;;-6.75;100.00;103078.53;5026037;28;20495;-62
2024/01/09 06:55:38;;;;;;;5.30;3.40;;;;;;;-6.75;100.00;103085.19;5026083;28;20040;-61
2024/01/09 06:58:04;;;;;;;4.83;3.23;;;;;;;-6.76;100.00;103074.19;5026606;28;20017;-61
2024/01/09 07:00:29;;;;;;;7.97;4.10;;;;;;;-6.77;100.00;103076.50;5026860;28;20044;-62
2024/01/09 07:02:56;;;;;;;5.37;3.60;;;;;;;-6.82;100.00;103077.47;5027071;28;20025;-62
2024/01/09 07:05:22;;;;;;;4.20;3.00;;;;;;;-6.81;100.00;103080.19;5027253;28;20224;-62
2024/01/09 07:07:47;;;;;;;4.87;3.70;;;;;;;-6.81;100.00;103074.25;5026039;28;20068;-61
2024/01/09 07:10:13;;;;;;;5.77;3.33;;;;;;;-6.81;100.00;103069.19;5026279;28;20284;-62
2024/01/09 07:12:38;;;;;;;5.43;3.57;;;;;;;-6.80;100.00;103071.91;5027254;28;20462;-62
2024/01/09 07:15:04;;;;;;;5.20;3.37;;;;;;;-6.80;100.00;103076.97;5024455;28;20045;-64
2024/01/09 07:17:29;;;;;;;4.33;3.00;;;;;;;-6.80;100.00;103081.13;5025788;28;20034;-64
2024/01/09 07:19:54;;;;;;;6.03;3.33;;;;;;;-6.79;100.00;103077.88;5025400;28;20068;-64
2024/01/09 07:22:19;;;;;;;6.33;3.27;;;;;;;-6.81;100.00;103080.19;5024804;28;20381;-63
2024/01/09 07:24:45;;;;;;;4.77;3.20;;;;;;;-6.80;100.00;103081.13;5025122;28;20079;-63
2024/01/09 07:27:10;;;;;;;4.73;3.37;;;;;;;-6.83;100.00;103081.59;5024222;28;20041;-64
2024/01/09 07:29:35;;;;;;;5.67;3.40;;;;;;;-6.84;100.00;103078.88;5022451;28;20047;-63
2024/01/09 07:32:01;;;;;;;5.00;3.30;;;;;;;-6.83;100.00;103086.63;5023618;28;20029;-63
2024/01/09 07:34:26;;;;;;;5.77;3.73;;;;;;;-6.85;100.00;103090.56;5022722;28;20045;-64
2024/01/09 07:36:51;;;;;;;5.17;3.00;;;;;;;-6.86;100.00;103091.28;5023775;28;20460;-63
2024/01/09 07:39:16;;;;;;;5.87;3.33;;;;;;;-6.84;100.00;103104.09;5024717;28;20069;-63
2024/01/09 07:41:42;;;;;;;4.97;3.50;;;;;;;-6.84;100.00;103104.09;5024878;28;20486;-63
2024/01/09 07:44:07;;;;;;;6.80;3.93;;;;;;;-6.85;100.00;103103.16;5025799;28;20033;-63
2024/01/09 07:46:32;;;;;;;4.37;3.03;;;;;;;-6.86;100.00;103101.34;5024824;28;20033;-63
2024/01/09 07:48:58;;;;;;;7.47;4.10;;;;;;;-6.85;100.00;103105.69;5028824;28;20049;-63
2024/01/09 07:51:23;;;;;;;4.57;3.13;;;;;;;-6.87;100.00;103114.66;5026091;28;20109;-63
2024/01/09 07:53:48;;;;;;;4.97;3.93;;;;;;;-6.86;100.00;103113.97;5026495;28;20098;-63
2024/01/09 07:56:18;;;;;;;7.23;4.37;;;;;;;-6.88;100.00;103112.84;5026561;28;20470;-63
2024/01/09 07:58:44;;;;;;;6.63;3.97;;;;;;;-6.84;100.00;103122.66;5026065;28;20052;-63
2024/01/09 08:01:13;;;;;;;5.47;3.90;;;;;;;-6.83;100.00;103121.94;5026524;28;20017;-63
2024/01/09 08:03:40;;;;;;;8.20;3.73;;;;;;;-6.83;100.00;103116.91;5026470;28;20600;-64
2024/01/09 08:06:15;;;;;;;6.43;3.90;;;;;;;-6.82;100.00;103113.72;5026671;28;20278;-63
2024/01/09 08:08:41;;;;;;;5.40;3.93;;;;;;;-6.83;100.00;103110.94;5026438;28;20041;-63
2024/01/09 08:11:07;;;;;;;5.03;3.33;;;;;;;-6.80;100.00;103117.31;5026448;28;20030;-63
2024/01/09 08:13:32;;;;;;;4.33;3.17;;;;;;;-6.77;100.00;103121.91;5026344;28;20029;-63
2024/01/09 08:15:57;;;;;;;5.63;3.80;;;;;;;-6.73;100.00;103128.28;5025978;28;20288;-63
2024/01/09 08:18:23;;;;;;;5.63;3.53;;;;;;;-6.76;100.00;103129.69;5026782;28;20025;-63
2024/01/09 08:20:48;;;;;;;5.57;3.77;;;;;;;-6.78;100.00;103128.53;5025337;28;20385;-63
2024/01/09 08:23:14;;;;;;;5.97;3.80;;;;;;;-6.77;100.00;103126.94;5026197;28;20029;-63
2024/01/09 08:25:39;;;;;;;5.77;3.90;;;;;;;-6.73;100.00;103133.31;5025872;28;20496;-62
2024/01/09 08:28:04;;;;;;;5.67;4.00;;;;;;;-6.76;100.00;103132.19;5025798;28;20029;-63
2024/01/09 08:30:30;;;;;;;5.40;4.07;;;;;;;-6.76;100.00;103127.16;5025840;28;20017;-63
2024/01/09 08:32:55;;;;;;;5.30;3.73;;;;;;;-6.79;100.00;103131.78;5026447;28;20052;-63
2024/01/09 08:35:21;;;;;;;6.60;4.37;;;;;;;-6.79;100.00;103129.25;5025401;28;20083;-63
2024/01/09 08:37:46;;;;;;;7.03;4.13;;;;;;;-6.76;100.00;103127.16;5021713;28;20029;-63
2024/01/09 08:40:11;;;;;;;6.50;4.57;;;;;;;-6.75;100.00;103134.03;5025982;28;20034;-63
2024/01/09 08:42:37;;;;;;;6.60;4.50;;;;;;;-6.69;100.00;103135.59;5026007;28;20438;-63
2024/01/09 08:45:02;;;;;;;6.70;4.00;;;;;;;-6.64;100.00;103130.44;5025573;28;20056;-63
2024/01/09 08:47:28;;;;;;;7.07;3.90;;;;;;;-6.59;100.00;103128.59;5029245;28;20108;-63
2024/01/09 08:49:53;;;;;;;6.23;4.40;;;;;;;-6.51;100.00;103135.59;5028834;28;20099;-63
2024/01/09 08:52:24;;;;;;;5.80;3.73;;;;;;;-6.34;100.00;103136.09;5029158;28;20029;-63
2024/01/09 08:54:50;;;;;;;5.47;4.13;;;;;;;-5.95;100.00;103136.25;5029708;28;20530;-63
2024/01/09 08:57:15;;;;;;;7.57;4.93;;;;;;;-5.39;100.00;103140.25;5029190;28;20120;-63
2024/01/09 08:59:40;;;;;;;5.87;4.20;;;;;;;-5.11;96.45;103142.31;5029115;28;20021;-64
2024/01/09 09:02:06;;;;;;;6.30;3.93;;;;;;;-4.89;93.87;103136.66;5029007;28;20033;-63
2024/01/09 09:04:31;;;;;;;6.57;4.17;;;;;;;-4.86;91.99;103137.97;5029558;28;20478;-64
2024/01/09 09:06:57;;;;;;;7.00;3.93;;;;;;;-5.00;91.01;103150.44;5029167;28;20045;-63
2024/01/09 09:09:22;;;;;;;5.57;4.13;;;;;;;-5.13;90.86;103148.81;5028583;28;20013;-63
2024/01/09 09:11:47;;;;;;;6.37;4.13;;;;;;;-5.32;91.16;103143.81;5028652;28;20431;-63
2024/01/09 09:14:13;;;;;;;5.30;3.93;;;;;;;-5.37;91.54;103149.88;5029065;28;20036;-63
2024/01/09 09:16:38;;;;;;;7.77;4.37;;;;;;;-5.52;92.27;103148.72;5028807;28;20087;-63
2024/01/09 09:19:03;;;;;;;6.47;4.60;;;;;;;-5.57;92.75;103155.69;5028913;28;20029;-63
2024/01/09 09:21:29;;;;;;;5.37;4.17;;;;;;;-5.62;93.50;103155.75;5028616;28;20061;-63
2024/01/09 09:23:54;;;;;;;6.00;4.23;;;;;;;-5.80;92.57;103145.91;5028333;28;20028;-63
2024/01/09 09:26:19;;;;;;;5.93;4.20;;;;;;;-5.78;93.20;103147.03;5028505;28;20047;-63
2024/01/09 09:28:47;;;;;;;5.10;4.10;;;;;;;-5.81;94.04;103144.06;5029040;28;20511;-63
2024/01/09 09:31:13;;;;;;;6.53;4.40;;;;;;;-5.82;94.37;103138.81;5026800;28;20424;-63
2024/01/09 09:33:41;;;;;;;6.20;4.07;;;;;;;-5.83;94.67;103135.38;5029059;28;20431;-64
2024/01/09 09:36:06;;;;;;;5.00;3.80;;;;;;;-5.82;95.04;103132.16;5027839;28;20029;-62
2024/01/09 09:38:33;;;;;;;6.87;4.33;;;;;;;-5.82;95.09;103138.81;5028682;28;20029;-63
2024/01/09 09:41:03;;;;;;;6.77;4.33;;;;;;;-5.79;95.22;103132.56;5028625;28;20025;-63
2024/01/09 09:43:29;;;;;;;5.63;4.17;;;;;;;-5.80;94.58;103145.00;5028378;28;20500;-63
2024/01/09 09:45:56;;;;;;;7.10;4.20;;;;;;;-5.82;93.60;103142.28;5027832;28;20033;-63
2024/01/09 09:48:23;;;;;;;5.23;4.53;;;;;;;-5.81;93.40;103141.56;5028521;28;20304;-63
2024/01/09 09:50:51;;;;;;;5.67;4.20;;;;;;;-5.83;93.12;103145.47;5028131;28;20075;-64
2024/01/09 09:53:18;;;;;;;6.90;4.23;;;;;;;-5.78;92.79;103147.03;5028713;28;20323;-63
2024/01/09 09:55:45;;;;;;;5.30;4.23;;;;;;;-5.80;92.51;103140.88;5028418;28;20531;-63
2024/01/09 09:58:10;;;;;;;5.83;4.53;;;;;;;-5.72;93.16;103141.88;5028108;28;20025;-63
2024/01/09 10:00:36;;;;;;;5.47;3.97;;;;;;;-5.72;92.86;103143.53;5027542;28;20044;-64
2024/01/09 10:03:08;;;;;;;6.07;4.23;;;;;;;-5.69;92.75;103148.97;5025522;28;20140;-64
2024/01/09 10:05:38;;;;;;;7.30;3.87;;;;;;;-5.67;92.44;103140.88;5018113;28;20115;-64
2024/01/09 10:08:07;;;;;;;4.90;4.03;;;;;;;-5.60;92.28;103134.16;5033153;28;20108;-63
2024/01/09 10:10:32;;;;;;;6.67;3.97;;;;;;;-5.52;93.02;103132.66;5034362;28;20076;-63
2024/01/09 10:12:58;;;;;;;6.83;4.37;;;;;;;-5.47;92.14;103129.13;5029666;28;20064;-64
2024/01/09 10:15:23;;;;;;;5.43;3.67;;;;;;;-5.43;90.99;103118.69;5018734;28;20040;-63
2024/01/09 10:17:48;;;;;;;6.47;4.73;;;;;;;-5.36;90.57;103116.28;5031717;28;20021;-64
2024/01/09 10:20:15;;;;;;;8.97;4.17;;;;;;;-5.31;89.84;103122.88;5028610;28;20087;-63
2024/01/09 10:22:40;;;;;;;5.43;4.10;;;;;;;-5.26;88.46;103122.56;5028658;28;20025;-64
2024/01/09 10:25:08;;;;;;;6.27;3.93;;;;;;;-5.23;87.70;103120.44;5027990;28;20036;-63
2024/01/09 10:27:35;;;;;;;5.73;3.80;;;;;;;-5.18;87.49;103116.94;5029369;28;20472;-63
2024/01/09 10:30:01;;;;;;;6.10;4.07;;;;;;;-5.10;87.87;103121.38;5025773;28;20131;-63
2024/01/09 10:32:26;;;;;;;6.60;4.57;;;;;;;-5.06;85.07;103120.16;5020505;28;20032;-63
2024/01/09 10:34:51;;;;;;;8.67;4.67;;;;;;;-5.09;84.29;103120.66;5030669;28;20041;-64
2024/01/09 10:37:18;;;;;;;7.33;4.60;;;;;;;-5.02;85.53;103121.47;5034267;28;20079;-64
2024/01/09 10:39:47;;;;;;;6.07;4.50;;;;;;;-5.00;84.36;103120.06;5026510;28;20458;-64
2024/01/09 10:42:12;;;;;;;7.40;4.17;;;;;;;-4.94;84.49;103120.88;5025114;28;20163;-63
2024/01/09 10:44:39;;;;;;;4.93;3.57;;;;;;;-4.93;84.18;103130.28;5026704;28;20123;-64
2024/01/09 10:47:13;;;;;;;6.33;3.80;;;;;;;-4.89;83.42;103107.19;5027327;28;20465;-64
2024/01/09 10:49:40;;;;;;;6.40;4.20;;;;;;;-4.89;81.84;103104.66;5024932;28;20179;-63
2024/01/09 10:52:11;;;;;;;8.20;4.37;;;;;;;-4.82;81.39;103104.75;5025117;28;20025;-64
2024/01/09 10:54:39;;;;;;;7.85;4.25;;;;;;;-4.79;82.76;103100.81;5026098;28;20029;-64
2024/01/09 10:57:05;;;;;;;6.87;4.10;;;;;;;-4.72;82.85;103081.59;5025476;28;20087;-65
2024/01/09 10:59:31;;;;;;;6.43;4.47;;;;;;;-4.66;83.16;103089.06;5028136;28;20028;-64
2024/01/09 11:01:56;;;;;;;6.87;3.70;;;;;;;-4.64;82.45;103090.16;5017534;28;20072;-64
2024/01/09 11:04:21;;;;;;;5.70;4.07;;;;;;;-4.60;81.15;103084.78;5027158;28;20091;-63
2024/01/09 11:06:47;;;;;;;7.07;4.10;;;;;;;-4.53;82.23;103075.47;5024685;28;20068;-63
2024/01/09 11:09:15;;;;;;;5.60;3.97;;;;;;;-4.53;80.48;103080.53;5028517;28;20059;-64
2024/01/09 11:11:42;;;;;;;6.33;4.20;;;;;;;-4.53;78.38;103073.81;5037831;28;20028;-62
2024/01/09 11:14:09;;;;;;;6.67;3.90;;;;;;;-4.47;80.59;103068.66;5027928;28;20099;-64
2024/01/09 11:16:38;;;;;;;6.60;4.30;;;;;;;-4.43;80.15;103065.81;5025776;28;20083;-64